Time;durP1;ratioP1;P1;durP2;ratioP2;P2;SDS_P1;SDS_P2;PMS_P1;PMS_P2;Temp;Humidity;BMP_temperature;BMP_pressure;BME280_temperature;BME280_humidity;BME280_pressure;Samples;Min_cycle;Max_cycle;Signal;HPM_P1;HPM_P2
2021/01/02 00:02:41;;;;;;;60.33;34.60;;;;;;;2.37;87.13;99889.56;5059350;28;20506;-72
2021/01/02 00:05:09;;;;;;;65.80;34.83;;;;;;;2.30;87.77;99896.19;5060035;28;20441;-72
2021/01/02 00:08:02;;;;;;;54.87;32.03;;;;;;;2.39;87.53;99888.53;5060958;28;20477;-72
2021/01/02 00:10:33;;;;;;;59.60;32.27;;;;;;;2.36;87.26;99896.66;5059308;28;20926;-71
2021/01/02 00:13:06;;;;;;;61.37;34.80;;;;;;;2.25;87.99;99892.03;5061333;28;20445;-71
2021/01/02 00:15:37;;;;;;;55.60;31.83;;;;;;;2.41;87.60;99897.22;5059661;28;20976;-72
2021/01/02 00:18:08;;;;;;;55.10;32.40;;;;;;;2.41;87.37;99897.22;5060632;28;20460;-72
2021/01/02 00:21:01;;;;;;;54.53;32.67;;;;;;;2.46;86.92;99899.53;5059873;28;20469;-71
2021/01/02 00:24:05;;;;;;;60.93;30.70;;;;;;;2.37;87.36;99898.31;5053700;28;20481;-71
2021/01/02 00:26:43;;;;;;;49.80;30.37;;;;;;;2.30;87.65;99904.09;5059120;28;20578;-71
2021/01/02 00:29:16;;;;;;;59.37;31.30;;;;;;;2.36;87.41;99895.78;5060453;28;20456;-71
2021/01/02 00:32:11;;;;;;;59.53;31.13;;;;;;;2.32;87.53;99897.78;5058872;28;20476;-71
2021/01/02 00:34:55;;;;;;;53.93;31.90;;;;;;;2.34;87.83;99900.31;5061467;28;20553;-71
2021/01/02 00:37:26;;;;;;;48.27;29.27;;;;;;;2.38;87.68;99897.41;5057329;28;20486;-72
2021/01/02 00:40:03;;;;;;;47.90;30.10;;;;;;;2.45;87.27;99905.78;5061449;28;20461;-72
2021/01/02 00:42:30;;;;;;;54.80;30.83;;;;;;;2.36;87.73;99903.69;5059218;28;20592;-72
2021/01/02 00:44:58;;;;;;;56.23;30.10;;;;;;;2.41;87.19;99905.13;5061642;28;21057;-72
2021/01/02 00:47:26;;;;;;;49.93;29.33;;;;;;;2.30;87.53;99910.22;5059925;28;20512;-72
2021/01/02 00:49:54;;;;;;;45.10;29.00;;;;;;;2.40;87.31;99908.69;5061365;28;20453;-72
2021/01/02 00:52:32;;;;;;;51.93;29.73;;;;;;;2.44;87.04;99911.97;5059638;28;20472;-72
2021/01/02 00:55:07;;;;;;;46.03;28.57;;;;;;;2.38;87.47;99918.50;5059914;28;20952;-72
2021/01/02 00:57:47;;;;;;;54.50;29.47;;;;;;;2.37;87.33;99900.97;5057909;28;20475;-71
2021/01/02 01:00:16;;;;;;;55.13;29.67;;;;;;;2.39;87.04;99909.63;5057378;28;20441;-71
2021/01/02 01:03:01;;;;;;;50.23;30.37;;;;;;;2.44;87.52;99906.72;5061457;28;20480;-72
2021/01/02 01:05:31;;;;;;;52.13;30.73;;;;;;;2.32;87.54;99908.31;5060551;28;21011;-72
2021/01/02 01:07:58;;;;;;;54.90;31.47;;;;;;;2.33;87.31;99909.19;5060811;28;20516;-72
2021/01/02 01:10:26;;;;;;;56.10;31.20;;;;;;;2.36;87.10;99901.94;5060411;28;20476;-72
2021/01/02 01:13:00;;;;;;;51.97;30.97;;;;;;;2.43;87.12;99899.72;5061964;28;20449;-72
2021/01/02 01:15:26;;;;;;;57.37;33.50;;;;;;;2.48;86.86;99896.81;5060718;28;20493;-72
2021/01/02 01:18:02;;;;;;;53.37;30.57;;;;;;;2.57;86.14;99899.72;5061450;28;20456;-71
2021/01/02 01:20:29;;;;;;;51.30;31.47;;;;;;;2.42;86.65;99900.69;5060155;28;20840;-72
2021/01/02 01:23:34;;;;;;;52.87;31.30;;;;;;;2.39;87.24;99908.78;5063671;28;20481;-71
2021/01/02 01:26:34;;;;;;;68.83;33.60;;;;;;;2.34;87.21;99908.22;5058654;28;21020;-72
2021/01/02 01:29:02;;;;;;;57.47;31.37;;;;;;;2.30;87.65;99915.50;5003399;28;20483;-71
2021/01/02 01:31:30;;;;;;;52.17;30.80;;;;;;;2.35;87.64;99913.41;5001542;28;20467;-72
2021/01/02 01:33:59;;;;;;;62.40;33.60;;;;;;;2.36;87.44;99916.88;5003683;28;20483;-71
2021/01/02 01:36:33;;;;;;;61.03;32.37;;;;;;;2.28;87.30;99916.53;5001533;28;20507;-71
2021/01/02 01:39:00;;;;;;;60.60;33.00;;;;;;;2.37;87.61;99921.22;5002935;28;20494;-71
2021/01/02 01:41:33;;;;;;;60.77;31.73;;;;;;;2.35;87.45;99917.84;5001774;28;20506;-71
2021/01/02 01:44:37;;;;;;;55.80;32.43;;;;;;;2.25;87.45;99922.84;5003638;28;20451;-71
2021/01/02 01:47:12;;;;;;;61.10;33.80;;;;;;;2.38;87.36;99926.41;5001894;28;20483;-72
2021/01/02 01:50:11;;;;;;;57.80;33.40;;;;;;;2.30;87.52;99920.75;5002892;28;20888;-72
2021/01/02 01:52:51;;;;;;;62.10;34.27;;;;;;;2.42;87.38;99924.44;5001754;28;20503;-71
2021/01/02 01:55:19;;;;;;;58.20;33.80;;;;;;;2.40;87.20;99928.97;4982166;28;20491;-71
2021/01/02 01:57:46;;;;;;;64.30;35.73;;;;;;;2.29;87.18;99931.41;4999083;28;20455;-71
2021/01/02 02:00:16;;;;;;;60.87;35.47;;;;;;;2.32;87.48;99931.22;5001513;28;20458;-71
2021/01/02 02:03:02;;;;;;;65.20;34.00;;;;;;;2.31;87.46;99937.44;5003010;28;20931;-71
2021/01/02 02:05:52;;;;;;;60.07;34.60;;;;;;;2.32;87.44;99934.69;5035270;28;21107;-71
2021/01/02 02:08:28;;;;;;;55.60;33.40;;;;;;;2.32;86.95;99939.97;5050549;28;20476;-71
2021/01/02 02:11:04;;;;;;;59.43;35.20;;;;;;;2.34;87.16;99939.88;5063712;28;20498;-71
2021/01/02 02:13:33;;;;;;;65.70;35.80;;;;;;;2.25;87.50;99939.50;5064539;28;20969;-71
2021/01/02 02:16:01;;;;;;;60.33;34.50;;;;;;;2.30;87.36;99936.59;5063499;28;20457;-71
2021/01/02 02:18:28;;;;;;;62.97;35.77;;;;;;;2.27;87.94;99939.41;5044627;28;20481;-71
2021/01/02 02:20:58;;;;;;;66.50;34.53;;;;;;;2.29;87.30;99926.13;5044889;28;20477;-71
2021/01/02 02:23:28;;;;;;;64.53;34.07;;;;;;;2.44;86.75;99931.28;5063876;28;20471;-71
2021/01/02 02:26:03;;;;;;;70.27;37.63;;;;;;;2.38;87.12;99939.59;5063406;28;20562;-71
2021/01/02 02:28:59;;;;;;;68.00;37.30;;;;;;;2.34;87.39;99929.34;5064263;28;20464;-71
2021/01/02 02:31:26;;;;;;;65.47;34.10;;;;;;;2.42;87.07;99932.34;5063168;28;20558;-71
2021/01/02 02:33:56;;;;;;;69.77;35.30;;;;;;;2.41;87.01;99935.91;5063805;28;20548;-71
2021/01/02 02:36:22;;;;;;;61.40;33.93;;;;;;;2.38;87.66;99934.34;5063019;28;20469;-72
2021/01/02 02:38:50;;;;;;;68.40;36.57;;;;;;;2.38;87.21;99936.13;5063730;28;20480;-72
2021/01/02 02:41:16;;;;;;;67.30;35.60;;;;;;;2.23;87.71;99935.28;5063211;28;20497;-71
2021/01/02 02:43:43;;;;;;;69.93;36.70;;;;;;;2.36;87.53;99935.34;5064068;28;20457;-72
2021/01/02 02:46:13;;;;;;;71.80;37.50;;;;;;;2.29;87.90;99931.41;5063223;28;20457;-71
2021/01/02 02:48:42;;;;;;;69.10;36.67;;;;;;;2.37;87.54;99931.78;5064344;28;20532;-71
2021/01/02 02:51:10;;;;;;;70.70;36.80;;;;;;;2.39;87.32;99930.72;5062290;28;20508;-71
2021/01/02 02:53:37;;;;;;;66.47;35.83;;;;;;;2.33;87.40;99932.94;5063502;28;20897;-71
2021/01/02 02:56:03;;;;;;;68.13;35.90;;;;;;;2.22;87.77;99933.56;5062651;28;20499;-71
2021/01/02 02:58:30;;;;;;;80.57;38.60;;;;;;;2.41;87.13;99935.91;5063508;28;20456;-71
2021/01/02 03:00:56;;;;;;;74.97;38.37;;;;;;;2.37;87.27;99934.44;5062449;28;20495;-71
2021/01/02 03:03:23;;;;;;;69.23;34.83;;;;;;;2.34;87.24;99937.25;5063750;28;20503;-71
2021/01/02 03:05:50;;;;;;;74.00;37.57;;;;;;;2.26;87.65;99938.56;5062511;28;20473;-71
2021/01/02 03:08:17;;;;;;;73.93;37.60;;;;;;;2.26;87.76;99941.22;5062629;28;20508;-70
2021/01/02 03:10:43;;;;;;;67.07;37.57;;;;;;;2.28;87.75;99932.38;5062341;28;20533;-71
2021/01/02 03:13:09;;;;;;;73.17;34.93;;;;;;;2.26;87.79;99941.22;5063460;28;20456;-71
2021/01/02 03:15:39;;;;;;;68.20;35.73;;;;;;;2.26;87.86;99943.84;5062034;28;21034;-71
2021/01/02 03:18:05;;;;;;;75.87;36.37;;;;;;;2.31;87.61;99948.84;5063416;28;20476;-71
2021/01/02 03:20:31;;;;;;;67.03;36.17;;;;;;;2.22;87.66;99945.00;5062087;28;20574;-71
2021/01/02 03:22:58;;;;;;;67.73;37.23;;;;;;;2.32;87.39;99952.31;5063165;28;20537;-71
2021/01/02 03:25:24;;;;;;;71.70;37.00;;;;;;;2.25;87.86;99959.78;5061802;28;20500;-71
2021/01/02 03:27:52;;;;;;;70.13;35.90;;;;;;;2.27;87.73;99949.97;5063223;28;20909;-71
2021/01/02 03:30:20;;;;;;;65.93;35.63;;;;;;;2.30;87.75;99959.50;5061425;28;20503;-71
2021/01/02 03:32:46;;;;;;;64.67;34.77;;;;;;;2.25;87.74;99954.50;5063180;28;20485;-71
2021/01/02 03:35:13;;;;;;;75.53;37.67;;;;;;;2.29;87.90;99950.72;5061998;28;20484;-71
2021/01/02 03:37:41;;;;;;;64.00;36.37;;;;;;;2.29;87.63;99944.59;5062475;28;20445;-71
2021/01/02 03:40:10;;;;;;;67.57;35.70;;;;;;;2.19;87.89;99950.44;5061298;28;20484;-71
2021/01/02 03:42:37;;;;;;;73.47;35.03;;;;;;;2.20;87.72;99941.56;5063237;28;20488;-71
2021/01/02 03:45:04;;;;;;;71.13;36.87;;;;;;;2.09;88.55;99944.03;5062308;28;20440;-71
2021/01/02 03:47:30;;;;;;;73.43;36.70;;;;;;;2.17;88.28;99949.72;5061028;28;20465;-71
2021/01/02 03:49:56;;;;;;;79.03;36.90;;;;;;;2.18;88.11;99948.75;5062709;28;20445;-71
2021/01/02 03:52:22;;;;;;;67.20;35.03;;;;;;;2.15;88.07;99948.94;5061174;28;20548;-71
2021/01/02 03:54:49;;;;;;;76.63;36.27;;;;;;;2.09;88.65;99945.84;5062305;28;20480;-71
2021/01/02 03:57:16;;;;;;;75.90;38.77;;;;;;;2.06;88.59;99944.22;5061072;28;20891;-71
2021/01/02 03:59:42;;;;;;;72.43;35.47;;;;;;;2.13;88.20;99935.00;5062373;28;20676;-71
2021/01/02 04:02:08;;;;;;;74.93;39.40;;;;;;;2.04;88.66;99941.69;5061230;28;20558;-71
2021/01/02 04:04:34;;;;;;;65.83;36.87;;;;;;;2.11;88.37;99931.59;5062990;28;20769;-71
2021/01/02 04:07:01;;;;;;;60.73;33.47;;;;;;;2.09;88.62;99936.13;5060833;28;20476;-71
2021/01/02 04:09:28;;;;;;;69.37;35.57;;;;;;;2.11;88.68;99923.69;5062098;28;20491;-71
2021/01/02 04:11:54;;;;;;;66.07;35.47;;;;;;;2.16;88.29;99932.16;5061274;28;20480;-71
2021/01/02 04:14:21;;;;;;;77.43;36.27;;;;;;;2.14;88.10;99928.78;5062484;28;21013;-70
2021/01/02 04:16:47;;;;;;;67.10;35.30;;;;;;;2.07;88.52;99933.59;5060930;28;20505;-71
2021/01/02 04:19:13;;;;;;;71.03;37.67;;;;;;;2.14;88.30;99934.06;5062623;28;20445;-71
2021/01/02 04:21:40;;;;;;;78.27;38.47;;;;;;;2.15;88.64;99933.09;5060834;28;20508;-71
2021/01/02 04:24:07;;;;;;;76.87;37.30;;;;;;;2.15;88.52;99927.00;5062100;28;20832;-71
2021/01/02 04:26:35;;;;;;;70.00;36.37;;;;;;;2.19;88.37;99931.16;5061130;28;20508;-71
2021/01/02 04:29:01;;;;;;;68.37;35.70;;;;;;;2.19;88.40;99926.72;5062169;28;20460;-71
2021/01/02 04:31:34;;;;;;;77.03;38.27;;;;;;;2.35;88.01;99931.88;5061017;28;20496;-71
2021/01/02 04:34:01;;;;;;;65.33;35.53;;;;;;;2.26;88.06;99929.81;5062110;28;20560;-71
2021/01/02 04:36:27;;;;;;;72.50;36.43;;;;;;;2.19;88.50;99937.25;5060522;28;20481;-71
2021/01/02 04:38:53;;;;;;;68.73;36.00;;;;;;;2.22;88.63;99929.16;5061442;28;20441;-72
2021/01/02 04:41:20;;;;;;;65.70;36.00;;;;;;;2.17;88.79;99927.75;5060974;28;20509;-72
2021/01/02 04:43:47;;;;;;;71.17;36.37;;;;;;;2.25;88.74;99928.97;5062044;28;20460;-72
2021/01/02 04:46:13;;;;;;;75.23;35.53;;;;;;;2.17;88.87;99930.38;5060037;28;20484;-72
2021/01/02 04:48:41;;;;;;;71.43;37.53;;;;;;;2.24;88.10;99937.81;5061663;28;20458;-70
2021/01/02 04:51:08;;;;;;;78.03;35.80;;;;;;;2.22;88.25;99934.44;5060772;28;20477;-70
2021/01/02 04:53:34;;;;;;;69.13;36.87;;;;;;;2.21;88.39;99935.38;5061257;28;20481;-70
2021/01/02 04:56:00;;;;;;;67.50;38.17;;;;;;;2.13;88.47;99935.00;5060193;28;20473;-72
2021/01/02 04:58:27;;;;;;;71.97;36.93;;;;;;;2.03;89.25;99940.00;5064826;28;20486;-72
2021/01/02 05:00:54;;;;;;;72.43;34.17;;;;;;;2.11;88.68;99944.78;5064846;28;20503;-71
2021/01/02 05:03:20;;;;;;;70.70;35.90;;;;;;;2.10;89.14;99945.75;5065326;28;20527;-71
2021/01/02 05:05:50;;;;;;;71.20;39.13;;;;;;;2.10;89.08;99944.88;5064742;28;20507;-72
2021/01/02 05:08:16;;;;;;;63.57;36.03;;;;;;;2.10;89.31;99943.13;5064720;28;20497;-72
2021/01/02 05:11:03;;;;;;;78.83;38.70;;;;;;;2.10;89.17;99951.03;5064403;28;20523;-71
2021/01/02 05:13:30;;;;;;;74.20;36.80;;;;;;;2.13;88.80;99944.69;5065111;28;20483;-70
2021/01/02 05:15:57;;;;;;;69.77;35.20;;;;;;;2.14;89.06;99946.41;5064074;28;20508;-72
2021/01/02 05:18:23;;;;;;;69.53;35.70;;;;;;;2.14;89.05;99943.78;5064988;28;20445;-71
2021/01/02 05:20:50;;;;;;;69.10;36.30;;;;;;;2.16;89.14;99944.53;5064407;28;20508;-72
2021/01/02 05:23:16;;;;;;;73.03;37.00;;;;;;;2.11;89.12;99952.72;5063097;28;20580;-71
2021/01/02 05:25:43;;;;;;;83.30;37.80;;;;;;;2.11;88.95;99947.44;5063871;28;20483;-71
2021/01/02 05:28:16;;;;;;;71.80;37.70;;;;;;;2.05;89.72;99953.94;5065103;28;20456;-71
2021/01/02 05:30:42;;;;;;;81.87;36.00;;;;;;;2.16;89.11;99950.63;5063729;28;20472;-72
2021/01/02 05:33:09;;;;;;;67.00;34.70;;;;;;;2.15;89.22;99956.00;5065279;28;20515;-72
2021/01/02 05:35:41;;;;;;;76.47;37.10;;;;;;;2.22;89.16;99954.69;5063770;28;20468;-72
2021/01/02 05:38:16;;;;;;;66.70;35.93;;;;;;;2.30;88.20;99952.41;5065132;28;20551;-69
2021/01/02 05:40:44;;;;;;;74.23;35.57;;;;;;;2.13;89.00;99956.09;5063143;28;20553;-69
2021/01/02 05:43:12;;;;;;;84.93;36.80;;;;;;;2.06;89.03;99965.31;5065307;28;20469;-70
2021/01/02 05:45:38;;;;;;;73.53;36.80;;;;;;;2.13;88.81;99964.00;5063594;28;20464;-70
2021/01/02 05:48:12;;;;;;;77.97;37.57;;;;;;;2.08;89.33;99966.06;5065275;28;20476;-71
2021/01/02 05:50:43;;;;;;;78.30;37.47;;;;;;;2.07;89.28;99972.31;5063460;28;20496;-71
2021/01/02 05:53:29;;;;;;;64.97;33.93;;;;;;;2.13;89.25;99968.44;5064476;28;20491;-71
2021/01/02 05:56:08;;;;;;;75.63;35.40;;;;;;;2.14;89.15;99967.50;5063490;28;20571;-71
2021/01/02 05:58:42;;;;;;;78.33;40.57;;;;;;;2.12;89.15;99975.50;5064112;28;20531;-71
2021/01/02 06:01:10;;;;;;;73.10;37.97;;;;;;;2.08;89.22;99973.97;5063341;28;20464;-71
2021/01/02 06:03:37;;;;;;;83.00;37.93;;;;;;;2.18;89.22;99969.84;5064433;28;20487;-71
2021/01/02 06:06:05;;;;;;;86.03;41.50;;;;;;;2.32;88.69;99974.28;5063205;28;20560;-71
2021/01/02 06:08:40;;;;;;;74.07;36.60;;;;;;;2.22;88.65;99984.56;5063224;28;20519;-70
2021/01/02 06:11:08;;;;;;;87.47;38.60;;;;;;;2.16;88.80;99984.09;5063297;28;20515;-70
2021/01/02 06:13:36;;;;;;;76.13;36.90;;;;;;;2.24;88.68;99990.59;5063987;28;20868;-71
2021/01/02 06:16:04;;;;;;;81.77;37.77;;;;;;;2.28;88.46;99985.97;5063099;28;20461;-72
2021/01/02 06:18:33;;;;;;;72.40;37.13;;;;;;;2.33;88.61;99985.69;5064351;28;20455;-71
2021/01/02 06:21:06;;;;;;;84.80;36.23;;;;;;;2.30;88.37;99993.78;5062859;28;20503;-71
2021/01/02 06:23:34;;;;;;;77.03;37.87;;;;;;;2.14;88.91;99997.34;5063948;28;20504;-71
2021/01/02 06:26:04;;;;;;;75.53;36.53;;;;;;;2.24;88.07;99998.50;5063160;28;20875;-72
2021/01/02 06:28:32;;;;;;;79.13;36.50;;;;;;;2.33;88.65;99998.88;5064238;28;21023;-71
2021/01/02 06:30:59;;;;;;;80.53;38.33;;;;;;;2.34;88.03;99995.28;5063139;28;20481;-71
2021/01/02 06:33:26;;;;;;;75.97;37.90;;;;;;;2.35;88.12;99999.63;5064243;28;20510;-71
2021/01/02 06:35:52;;;;;;;70.07;35.67;;;;;;;2.29;88.88;100011.38;5062942;28;20671;-71
2021/01/02 06:38:18;;;;;;;80.53;38.30;;;;;;;2.32;88.09;100010.38;5064257;28;20453;-71
2021/01/02 06:40:47;;;;;;;74.20;37.00;;;;;;;2.31;87.99;100008.66;5062632;28;20468;-71
2021/01/02 06:43:16;;;;;;;70.90;35.20;;;;;;;2.33;88.38;100012.91;5063727;28;20469;-71
2021/01/02 06:46:06;;;;;;;75.47;35.33;;;;;;;2.38;87.50;100012.63;5062819;28;20524;-71
2021/01/02 06:48:40;;;;;;;69.50;35.43;;;;;;;2.29;87.94;100010.53;5063825;28;20484;-70
2021/01/02 06:51:26;;;;;;;67.73;35.53;;;;;;;2.31;88.08;100019.22;5062413;28;20486;-71
2021/01/02 06:53:52;;;;;;;69.57;34.23;;;;;;;2.24;88.16;100011.69;5043383;28;20491;-71
2021/01/02 06:56:18;;;;;;;71.83;36.70;;;;;;;2.11;88.41;100010.72;5054588;28;20480;-71
2021/01/02 06:58:46;;;;;;;70.63;38.70;;;;;;;2.12;88.41;100007.16;5063587;28;20554;-71
2021/01/02 07:01:37;;;;;;;75.73;36.13;;;;;;;2.15;88.33;100020.13;5062522;28;20472;-71
2021/01/02 07:04:03;;;;;;;66.70;34.67;;;;;;;2.09;88.52;100020.53;5063523;28;20460;-71
2021/01/02 07:06:34;;;;;;;67.87;35.70;;;;;;;2.19;88.77;100013.75;5061691;28;20507;-71
2021/01/02 07:09:09;;;;;;;76.90;37.77;;;;;;;2.15;88.64;100017.50;5063316;28;20492;-71
2021/01/02 07:11:37;;;;;;;79.70;37.63;;;;;;;2.18;88.42;100019.13;5062613;28;20468;-71
2021/01/02 07:14:25;;;;;;;73.73;37.20;;;;;;;2.20;88.10;100012.78;5063503;28;20520;-71
2021/01/02 07:17:01;;;;;;;81.73;37.60;;;;;;;2.03;88.69;100018.22;5061906;28;20484;-71
2021/01/02 07:19:38;;;;;;;77.77;36.77;;;;;;;2.17;88.47;100017.41;5063251;28;20456;-71
2021/01/02 07:22:07;;;;;;;74.83;35.47;;;;;;;2.17;88.32;100018.28;5062180;28;20567;-71
2021/01/02 07:24:39;;;;;;;71.90;36.33;;;;;;;2.23;88.36;100020.53;5062761;28;20477;-70
2021/01/02 07:27:07;;;;;;;68.30;35.17;;;;;;;2.21;87.98;100024.22;5061467;28;20508;-71
2021/01/02 07:29:35;;;;;;;66.03;34.30;;;;;;;2.23;88.52;100020.53;5063350;28;20452;-71
2021/01/02 07:32:06;;;;;;;73.33;36.57;;;;;;;2.36;87.59;100027.69;5062138;28;20488;-71
2021/01/02 07:34:32;;;;;;;72.20;36.63;;;;;;;2.23;87.99;100027.59;5063410;28;20989;-71
2021/01/02 07:37:02;;;;;;;75.50;36.73;;;;;;;2.23;87.75;100024.97;5061025;28;20468;-71
2021/01/02 07:39:29;;;;;;;72.80;36.87;;;;;;;2.23;87.90;100031.06;5055105;28;20477;-71
2021/01/02 07:41:56;;;;;;;66.90;36.20;;;;;;;2.37;87.51;100026.75;5059301;28;20519;-70
2021/01/02 07:44:22;;;;;;;68.73;35.10;;;;;;;2.38;86.98;100031.09;5062420;28;20445;-70
2021/01/02 07:46:49;;;;;;;72.20;34.23;;;;;;;2.33;87.07;100039.28;5060712;28;20511;-71
2021/01/02 07:49:17;;;;;;;64.67;34.73;;;;;;;2.35;87.34;100039.19;5061223;28;20977;-71
2021/01/02 07:51:47;;;;;;;68.97;35.97;;;;;;;2.29;86.92;100050.13;5060355;28;20986;-70
2021/01/02 07:54:13;;;;;;;64.93;35.10;;;;;;;2.25;87.17;100046.81;5061380;28;20477;-71
2021/01/02 07:56:41;;;;;;;68.13;36.50;;;;;;;2.22;87.58;100053.13;5059847;28;20519;-71
2021/01/02 07:59:25;;;;;;;70.10;39.80;;;;;;;2.34;87.35;100058.59;5061425;28;20465;-71
2021/01/02 08:01:54;;;;;;;70.67;35.10;;;;;;;2.25;87.59;100058.19;5057998;28;20990;-71
2021/01/02 08:04:21;;;;;;;65.27;35.73;;;;;;;2.34;87.28;100055.97;5060671;28;20496;-72
2021/01/02 08:06:48;;;;;;;64.47;33.80;;;;;;;2.38;87.33;100060.13;5046550;28;20521;-71
2021/01/02 08:09:14;;;;;;;73.33;34.83;;;;;;;2.33;87.34;100064.84;5038882;28;20446;-72
2021/01/02 08:12:02;;;;;;;65.73;35.10;;;;;;;2.41;87.07;100059.91;5049243;28;20577;-71
2021/01/02 08:14:31;;;;;;;62.43;33.77;;;;;;;2.30;86.95;100060.56;5054206;28;20508;-71
2021/01/02 08:17:00;;;;;;;69.07;35.70;;;;;;;2.25;87.96;100060.84;5056942;28;20473;-71
2021/01/02 08:19:28;;;;;;;64.63;34.63;;;;;;;2.38;87.18;100066.25;5059165;28;20453;-70
2021/01/02 08:21:54;;;;;;;66.33;33.93;;;;;;;2.40;87.48;100074.06;5058110;28;20508;-71
2021/01/02 08:24:20;;;;;;;63.20;34.57;;;;;;;2.52;86.97;100068.03;5058309;28;20473;-71
2021/01/02 08:26:47;;;;;;;61.97;32.80;;;;;;;2.35;86.96;100073.50;5058380;28;20637;-70
2021/01/02 08:29:14;;;;;;;71.30;34.80;;;;;;;2.28;87.16;100080.94;5058641;28;20457;-70
2021/01/02 08:31:46;;;;;;;68.00;35.13;;;;;;;2.32;87.24;100082.44;5056825;28;20552;-70
2021/01/02 08:34:17;;;;;;;63.83;33.70;;;;;;;2.33;87.34;100078.03;5059105;28;20452;-69
2021/01/02 08:36:43;;;;;;;70.53;36.23;;;;;;;2.25;87.57;100076.66;5057611;28;20488;-71
2021/01/02 08:39:10;;;;;;;76.73;36.17;;;;;;;2.35;87.30;100081.41;5057646;28;20507;-71
2021/01/02 08:41:36;;;;;;;70.53;36.70;;;;;;;2.36;87.16;100083.97;5057123;28;20492;-71
2021/01/02 08:44:03;;;;;;;66.00;35.40;;;;;;;2.41;87.52;100083.66;5053742;28;20491;-72
2021/01/02 08:46:29;;;;;;;66.27;37.60;;;;;;;2.60;86.31;100086.03;5056591;28;20510;-71
2021/01/02 08:48:56;;;;;;;71.57;36.40;;;;;;;2.65;86.72;100091.88;5058864;28;20461;-71
2021/01/02 08:51:24;;;;;;;62.30;33.70;;;;;;;2.58;86.83;100093.19;5057432;28;20547;-71
2021/01/02 08:53:50;;;;;;;72.77;37.17;;;;;;;2.52;86.87;100097.06;5058292;28;20480;-70
2021/01/02 08:56:24;;;;;;;73.20;36.33;;;;;;;2.48;87.08;100092.06;5055525;28;20508;-71
2021/01/02 08:58:50;;;;;;;67.57;35.57;;;;;;;2.57;86.74;100096.78;5058038;28;21033;-71
2021/01/02 09:01:16;;;;;;;76.60;38.40;;;;;;;2.58;86.82;100096.69;5054037;28;20488;-72
2021/01/02 09:03:43;;;;;;;62.27;34.83;;;;;;;2.61;86.24;100093.88;5059014;28;20935;-71
2021/01/02 09:06:25;;;;;;;68.53;36.10;;;;;;;2.69;86.63;100098.69;5056894;28;20492;-71
2021/01/02 09:09:01;;;;;;;73.33;36.27;;;;;;;2.76;86.69;100110.56;5047133;28;20470;-71
2021/01/02 09:11:27;;;;;;;72.37;35.00;;;;;;;2.61;86.25;100101.78;5050835;28;20937;-72
2021/01/02 09:14:11;;;;;;;69.57;36.93;;;;;;;2.36;87.20;100101.56;5061317;28;20473;-70
2021/01/02 09:16:37;;;;;;;71.07;36.53;;;;;;;2.57;86.44;100102.06;5058114;28;20481;-71
2021/01/02 09:19:03;;;;;;;64.63;34.80;;;;;;;2.64;86.51;100108.69;5060166;28;21051;-71
2021/01/02 09:21:30;;;;;;;70.17;36.33;;;;;;;2.67;86.17;100116.38;5058919;28;20534;-70
2021/01/02 09:23:57;;;;;;;73.70;35.93;;;;;;;2.76;85.86;100113.22;5059919;28;20473;-72
2021/01/02 09:26:28;;;;;;;68.47;37.57;;;;;;;2.80;85.88;100116.50;5058783;28;21207;-72
2021/01/02 09:28:56;;;;;;;70.57;34.43;;;;;;;2.86;85.67;100116.13;5060621;28;20484;-72
2021/01/02 09:31:22;;;;;;;75.33;36.33;;;;;;;3.03;84.92;100122.16;5057352;28;20501;-71
2021/01/02 09:33:49;;;;;;;61.17;34.00;;;;;;;3.03;84.78;100123.00;5060616;28;20473;-69
2021/01/02 09:36:16;;;;;;;66.87;34.53;;;;;;;2.99;84.73;100127.63;5058878;28;20512;-70
2021/01/02 09:38:44;;;;;;;72.80;37.13;;;;;;;2.89;84.60;100123.84;5056929;28;20531;-68
2021/01/02 09:41:14;;;;;;;72.03;35.93;;;;;;;2.73;85.63;100123.94;5057343;28;20531;-70
2021/01/02 09:43:41;;;;;;;68.73;35.80;;;;;;;2.86;84.93;100129.31;5060690;28;20567;-70
2021/01/02 09:46:12;;;;;;;65.97;35.23;;;;;;;2.73;86.02;100128.38;5061033;28;21035;-71
2021/01/02 09:48:38;;;;;;;70.17;36.43;;;;;;;2.85;84.93;100132.03;5060743;28;20965;-68
2021/01/02 09:51:04;;;;;;;63.30;34.57;;;;;;;2.70;85.50;100134.69;5061726;28;20540;-70
2021/01/02 09:53:31;;;;;;;58.10;32.60;;;;;;;2.47;86.63;100136.09;5062529;28;20480;-69
2021/01/02 09:55:57;;;;;;;68.90;38.07;;;;;;;2.56;86.00;100134.69;5061026;28;20469;-71
2021/01/02 09:58:24;;;;;;;69.47;36.23;;;;;;;2.54;85.70;100132.13;5062645;28;20930;-71
2021/01/02 10:00:50;;;;;;;57.10;33.17;;;;;;;2.63;85.71;100136.00;5061131;28;20489;-71
2021/01/02 10:03:16;;;;;;;60.63;33.23;;;;;;;2.72;85.20;100131.97;5063308;28;20457;-71
2021/01/02 10:05:42;;;;;;;60.50;33.07;;;;;;;2.89;85.42;100141.50;5062162;28;20472;-70
2021/01/02 10:08:09;;;;;;;58.10;30.37;;;;;;;3.15;84.16;100140.72;5061812;28;20925;-71
2021/01/02 10:10:35;;;;;;;65.07;34.13;;;;;;;3.19;83.97;100139.59;5061707;28;20460;-71
2021/01/02 10:13:01;;;;;;;73.00;33.57;;;;;;;3.29;83.32;100141.66;5059717;28;20492;-71
2021/01/02 10:15:29;;;;;;;63.93;34.77;;;;;;;3.09;83.33;100134.97;5058988;28;20465;-71
2021/01/02 10:17:55;;;;;;;57.43;32.40;;;;;;;2.97;83.90;100132.16;5062886;28;20464;-70
2021/01/02 10:20:21;;;;;;;59.93;31.90;;;;;;;3.01;83.74;100133.66;5061152;28;20457;-71
2021/01/02 10:22:47;;;;;;;56.40;32.40;;;;;;;3.10;83.41;100124.31;5059756;28;20441;-71
2021/01/02 10:25:14;;;;;;;65.03;34.67;;;;;;;3.22;83.00;100127.97;5061426;28;20476;-71
2021/01/02 10:27:40;;;;;;;54.87;31.90;;;;;;;3.19;82.55;100128.16;5062861;28;20468;-71
2021/01/02 10:30:09;;;;;;;55.30;29.73;;;;;;;3.36;82.27;100129.75;5060792;28;20476;-71
2021/01/02 10:32:36;;;;;;;56.20;32.37;;;;;;;3.23;82.49;100127.03;5062735;28;20480;-71
2021/01/02 10:35:03;;;;;;;51.70;30.43;;;;;;;3.44;81.90;100132.75;5062765;28;20938;-71
2021/01/02 10:37:30;;;;;;;57.30;32.50;;;;;;;3.62;81.82;100125.44;5058663;28;20472;-70
2021/01/02 10:39:56;;;;;;;52.37;30.37;;;;;;;3.57;81.43;100130.16;5061614;28;20471;-71
2021/01/02 10:42:24;;;;;;;51.70;28.83;;;;;;;3.54;81.30;100138.28;5061285;28;20480;-70
2021/01/02 10:44:50;;;;;;;47.60;29.20;;;;;;;3.52;80.69;100130.44;5059269;28;20489;-70
2021/01/02 10:47:18;;;;;;;54.63;31.00;;;;;;;3.49;81.12;100129.81;5053293;28;20811;-71
2021/01/02 10:49:45;;;;;;;49.03;30.80;;;;;;;3.63;81.38;100121.84;5062610;28;20524;-71
2021/01/02 10:52:14;;;;;;;54.27;30.97;;;;;;;4.00;80.27;100123.88;5060962;28;20473;-70
2021/01/02 10:54:42;;;;;;;54.87;31.50;;;;;;;3.79;79.61;100124.34;5062044;28;21002;-71
2021/01/02 10:57:09;;;;;;;49.53;28.70;;;;;;;3.89;80.20;100117.50;5060800;28;20563;-70
2021/01/02 10:59:35;;;;;;;45.57;27.87;;;;;;;3.57;80.09;100122.22;5062825;28;20468;-70
2021/01/02 11:02:01;;;;;;;48.63;30.43;;;;;;;3.47;80.42;100121.13;5058616;28;20476;-70
2021/01/02 11:04:27;;;;;;;53.73;30.70;;;;;;;3.60;80.99;100126.50;5062226;28;20449;-70
2021/01/02 11:06:55;;;;;;;51.30;28.33;;;;;;;3.35;81.49;100128.03;5060754;28;20493;-70
2021/01/02 11:09:23;;;;;;;52.03;29.97;;;;;;;3.33;81.84;100122.88;5060893;28;20493;-70
2021/01/02 11:11:51;;;;;;;53.27;30.87;;;;;;;3.19;82.74;100129.03;5057889;28;20547;-71
2021/01/02 11:14:17;;;;;;;46.47;29.17;;;;;;;3.37;82.05;100134.94;5060319;28;20512;-69
2021/01/02 11:16:45;;;;;;;48.93;29.63;;;;;;;3.06;83.12;100130.72;5058685;28;20476;-71
2021/01/02 11:19:11;;;;;;;51.50;28.93;;;;;;;3.23;82.65;100126.19;5060876;28;20928;-71
2021/01/02 11:21:38;;;;;;;48.70;30.97;;;;;;;3.17;82.48;100122.97;5059883;28;20488;-70
2021/01/02 11:24:06;;;;;;;52.00;29.30;;;;;;;3.47;81.70;100115.84;5060430;28;20453;-70
2021/01/02 11:26:32;;;;;;;50.30;29.20;;;;;;;3.60;80.91;100118.56;5060244;28;20838;-71
2021/01/02 11:28:58;;;;;;;50.80;30.67;;;;;;;3.66;80.88;100116.34;5061608;28;20506;-70
2021/01/02 11:31:28;;;;;;;48.03;29.73;;;;;;;3.51;80.85;100110.28;5059240;28;20495;-70
2021/01/02 11:33:55;;;;;;;48.70;28.30;;;;;;;3.41;81.35;100106.53;5060503;28;20481;-70
2021/01/02 11:36:21;;;;;;;51.73;31.03;;;;;;;3.54;81.41;100102.16;5060859;28;20520;-70